createdAt,value
2019-02-09T00:00:22.570Z,100897.61
2019-02-09T00:01:02.796Z,100901.39
2019-02-09T00:01:39.120Z,100898.69
2019-02-09T00:02:15.411Z,100899.78
2019-02-09T00:02:51.651Z,100897.08
2019-02-09T00:03:27.813Z,100900.04
2019-02-09T00:04:03.992Z,100899.78
2019-02-09T00:04:40.147Z,100896.80
2019-02-09T00:05:16.754Z,100898.69
2019-02-09T00:05:52.972Z,100904.34
2019-02-09T00:06:29.271Z,100904.61
2019-02-09T00:07:05.387Z,100903.26
2019-02-09T00:07:41.495Z,100909.17
2019-02-09T00:08:17.658Z,100911.08
2019-02-09T00:08:53.951Z,100908.91
2019-02-09T00:09:29.986Z,100909.69
2019-02-09T00:10:06.906Z,100918.03
2019-02-09T00:10:43.034Z,100917.47
2019-02-09T00:11:19.271Z,100915.56
2019-02-09T00:11:55.325Z,100916.08
2019-02-09T00:12:31.415Z,100919.30
2019-02-09T00:13:07.658Z,100918.48
2019-02-09T00:13:43.751Z,100918.45
2019-02-09T00:14:19.885Z,100922.51
2019-02-09T00:14:56.050Z,100924.38
2019-02-09T00:15:32.591Z,100928.41
2019-02-09T00:16:09.159Z,100925.68
2019-02-09T00:16:45.420Z,100924.86
2019-02-09T00:17:21.511Z,100924.86
2019-02-09T00:17:57.720Z,100926.19
2019-02-09T00:18:34.033Z,100928.05
2019-02-09T00:19:10.191Z,100923.18
2019-02-09T00:19:46.293Z,100930.70
2019-02-09T00:20:22.654Z,100930.69
2019-02-09T00:20:58.945Z,100930.69
2019-02-09T00:21:35.061Z,100929.86
2019-02-09T00:22:11.329Z,100935.75
2019-02-09T00:22:47.433Z,100936.53
2019-02-09T00:23:23.602Z,100936.50
2019-02-09T00:23:59.702Z,100938.63
2019-02-09T00:24:36.027Z,100929.45
2019-02-09T00:25:15.302Z,100929.45
2019-02-09T00:25:51.411Z,100937.23
2019-02-09T00:26:27.701Z,100936.12
2019-02-09T00:27:03.847Z,100939.34
2019-02-09T00:27:39.963Z,100941.20
2019-02-09T00:28:16.143Z,100940.62
2019-02-09T00:28:52.351Z,100934.40
2019-02-09T00:29:28.555Z,100940.58
2019-02-09T00:30:04.873Z,100945.98
2019-02-09T00:30:41.044Z,100945.98
2019-02-09T00:31:17.400Z,100943.53
2019-02-09T00:31:53.754Z,100942.70
2019-02-09T00:32:29.943Z,100948.56
2019-02-09T00:33:06.284Z,100948.56
2019-02-09T00:33:42.614Z,100954.19
2019-02-09T00:34:18.895Z,100959.83
2019-02-09T00:34:55.158Z,100958.73
2019-02-09T00:35:31.493Z,100956.25
2019-02-09T00:36:07.845Z,100959.47
2019-02-09T00:36:43.938Z,100959.47
2019-02-09T00:37:19.997Z,100967.26
2019-02-09T00:37:56.245Z,100956.45
2019-02-09T00:38:32.359Z,100956.45
2019-02-09T00:39:09.839Z,100953.17
2019-02-09T00:39:46.020Z,100957.73
2019-02-09T00:40:22.294Z,100970.31
2019-02-09T00:40:58.486Z,100966.77
2019-02-09T00:41:34.898Z,100966.77
2019-02-09T00:42:11.201Z,100969.99
2019-02-09T00:42:48.494Z,100963.97
2019-02-09T00:43:24.653Z,100963.97
2019-02-09T00:44:00.901Z,100966.89
2019-02-09T00:44:37.195Z,100966.89
2019-02-09T00:45:13.775Z,100971.71
2019-02-09T00:45:50.224Z,100971.71
2019-02-09T00:46:26.434Z,100965.98
2019-02-09T00:47:02.744Z,100973.25
2019-02-09T00:47:38.920Z,100964.34
2019-02-09T00:48:15.166Z,100962.69
2019-02-09T00:48:51.473Z,100968.83
2019-02-09T00:49:27.867Z,100968.83
2019-02-09T00:50:04.259Z,100972.55
2019-02-09T00:50:40.432Z,100963.34
2019-02-09T00:51:16.612Z,100976.20
2019-02-09T00:51:52.804Z,100976.20
2019-02-09T00:52:29.046Z,100962.17
2019-02-09T00:53:05.312Z,100975.28
2019-02-09T00:53:41.620Z,100973.85
2019-02-09T00:54:17.944Z,100973.85
2019-02-09T00:54:54.089Z,100974.65
2019-02-09T00:55:30.470Z,100974.65
2019-02-09T00:56:07.077Z,100988.12
2019-02-09T00:56:43.184Z,100967.04
2019-02-09T00:57:19.429Z,100975.15
2019-02-09T00:57:55.734Z,100975.15
2019-02-09T00:58:32.204Z,100982.89
2019-02-09T00:59:08.269Z,100979.08
2019-02-09T00:59:44.522Z,100979.08
2019-02-09T01:00:22.819Z,100984.66
2019-02-09T01:00:59.056Z,100978.44
2019-02-09T01:01:35.116Z,100978.10
2019-02-09T01:02:11.393Z,100983.73
2019-02-09T01:02:47.693Z,100987.41
2019-02-09T01:03:23.972Z,100985.46
2019-02-09T01:04:00.123Z,100985.46
2019-02-09T01:04:36.250Z,100986.22
2019-02-09T01:05:12.677Z,100978.65
2019-02-09T01:05:49.094Z,100978.65
2019-02-09T01:06:25.355Z,100989.37
2019-02-09T01:07:01.501Z,100990.13
2019-02-09T01:07:37.756Z,100986.58
2019-02-09T01:08:14.107Z,100989.50
2019-02-09T01:08:50.194Z,100994.05
2019-02-09T01:09:26.503Z,100991.89
2019-02-09T01:10:02.591Z,100990.74
2019-02-09T01:10:38.936Z,100992.08
2019-02-09T01:11:15.105Z,100990.13
2019-02-09T01:11:51.295Z,100991.48
2019-02-09T01:12:27.369Z,100991.98
2019-02-09T01:13:03.515Z,100996.51
2019-02-09T01:13:39.781Z,100997.02
2019-02-09T01:14:15.808Z,100997.52
2019-02-09T01:14:52.079Z,100993.95
2019-02-09T01:15:28.326Z,100996.62
2019-02-09T01:16:04.501Z,101002.27
2019-02-09T01:16:40.906Z,101005.98
2019-02-09T01:17:17.282Z,101003.78
2019-02-09T01:17:53.461Z,101009.40
2019-02-09T01:18:29.551Z,101007.70
2019-02-09T01:19:05.865Z,101006.84
2019-02-09T01:19:41.971Z,101010.30
2019-02-09T01:20:22.987Z,101011.06
2019-02-09T01:20:59.213Z,101003.19
2019-02-09T01:21:35.334Z,101012.32
2019-02-09T01:22:11.559Z,101010.62
2019-02-09T01:22:48.078Z,101006.20
2019-02-09T01:23:24.315Z,101006.95
2019-02-09T01:24:00.528Z,101012.05
2019-02-09T01:24:36.726Z,101007.88
2019-02-09T01:25:13.293Z,101014.05
2019-02-09T01:25:49.585Z,101012.08
2019-02-09T01:26:25.656Z,101016.34
2019-02-09T01:27:01.983Z,101016.04
2019-02-09T01:27:38.110Z,101015.93
2019-02-09T01:28:14.188Z,101020.22
2019-02-09T01:28:50.365Z,101016.10
2019-02-09T01:29:26.522Z,101016.59
2019-02-09T01:30:03.032Z,101018.45
2019-02-09T01:30:39.370Z,101020.03
2019-02-09T01:31:15.682Z,101020.53
2019-02-09T01:31:51.885Z,101023.44
2019-02-09T01:32:28.246Z,101017.16
2019-02-09T01:33:04.391Z,101024.19
2019-02-09T01:33:40.591Z,101019.53
2019-02-09T01:34:16.836Z,101015.71
2019-02-09T01:34:53.003Z,101016.70
2019-02-09T01:35:29.319Z,101020.72
2019-02-09T01:36:05.445Z,101021.70
2019-02-09T01:36:41.757Z,101022.45
2019-02-09T01:37:17.967Z,101023.20
2019-02-09T01:37:54.460Z,101025.05
2019-02-09T01:38:30.409Z,101021.75
2019-02-09T01:39:08.659Z,101019.03
2019-02-09T01:39:44.788Z,101020.58
2019-02-09T01:40:24.243Z,101023.55
2019-02-09T01:41:00.313Z,101025.77
2019-02-09T01:41:36.363Z,101025.70
2019-02-09T01:42:12.473Z,101026.20
2019-02-09T01:42:48.666Z,101023.98
2019-02-09T01:43:24.873Z,101019.84
2019-02-09T01:44:01.135Z,101024.66
2019-02-09T01:44:37.917Z,101029.75
2019-02-09T01:45:17.299Z,101030.27
2019-02-09T01:45:53.517Z,101027.19
2019-02-09T01:46:29.809Z,101028.17
2019-02-09T01:47:06.109Z,101029.47
2019-02-09T01:47:42.290Z,101031.56
2019-02-09T01:48:18.606Z,101030.14
2019-02-09T01:48:54.709Z,101031.13
2019-02-09T01:49:30.796Z,101022.39
2019-02-09T01:50:09.003Z,101030.47
2019-02-09T01:50:45.253Z,101028.81
2019-02-09T01:51:21.488Z,101036.33
2019-02-09T01:51:57.696Z,101031.39
2019-02-09T01:52:33.777Z,101027.63
2019-02-09T01:53:09.997Z,101035.41
2019-02-09T01:53:46.189Z,101037.31
2019-02-09T01:54:22.319Z,101033.42
2019-02-09T01:54:58.463Z,101037.25
2019-02-09T01:55:34.501Z,101037.00
2019-02-09T01:56:10.763Z,101035.58
2019-02-09T01:56:46.920Z,101035.83
2019-02-09T01:57:22.996Z,101037.00
2019-02-09T01:57:59.325Z,101040.21
2019-02-09T01:58:35.570Z,101044.22
2019-02-09T01:59:11.872Z,101040.15
2019-02-09T01:59:48.114Z,101040.64
2019-02-09T02:00:26.079Z,101042.77
2019-02-09T02:01:02.213Z,101038.06
2019-02-09T02:01:38.318Z,101042.66
2019-02-09T02:02:14.743Z,101039.08
2019-02-09T02:02:51.201Z,101042.21
2019-02-09T02:03:27.596Z,101043.19
2019-02-09T02:04:03.713Z,101043.37
2019-02-09T02:04:39.883Z,101039.54
2019-02-09T02:05:16.821Z,101039.36
2019-02-09T02:05:52.903Z,101043.37
2019-02-09T02:06:28.964Z,101039.78
2019-02-09T02:07:05.065Z,101039.78
2019-02-09T02:07:41.232Z,101044.63
2019-02-09T02:08:21.063Z,101042.22
2019-02-09T02:08:57.248Z,101043.27
2019-02-09T02:09:33.380Z,101046.22
2019-02-09T02:10:12.249Z,101043.92
2019-02-09T02:10:48.600Z,101052.50
2019-02-09T02:11:24.771Z,101052.98
2019-02-09T02:12:00.852Z,101050.76
2019-02-09T02:12:36.982Z,101050.13
2019-02-09T02:13:13.464Z,101049.81
2019-02-09T02:13:49.496Z,101047.86
2019-02-09T02:14:25.486Z,101055.14
2019-02-09T02:15:01.555Z,101053.39
2019-02-09T02:15:37.882Z,101051.16
2019-02-09T02:16:14.057Z,101050.99
2019-02-09T02:16:50.590Z,101058.77
2019-02-09T02:17:26.850Z,101057.13
2019-02-09T02:18:03.194Z,101055.69
2019-02-09T02:18:39.302Z,101051.78
2019-02-09T02:19:15.534Z,101051.22
2019-02-09T02:19:51.783Z,101051.70
2019-02-09T02:20:28.748Z,101053.83
2019-02-09T02:21:05.010Z,101050.48
2019-02-09T02:21:41.286Z,101052.39
2019-02-09T02:22:17.428Z,101049.84
2019-02-09T02:22:53.539Z,101046.87
2019-02-09T02:23:29.555Z,101058.73
2019-02-09T02:24:05.731Z,101045.38
2019-02-09T02:24:41.836Z,101050.66
2019-02-09T02:25:18.328Z,101046.75
2019-02-09T02:25:54.526Z,101045.39
2019-02-09T02:26:30.797Z,101054.98
2019-02-09T02:27:06.990Z,101044.52
2019-02-09T02:27:43.082Z,101049.95
2019-02-09T02:28:19.368Z,101045.88
2019-02-09T02:28:55.446Z,101042.86
2019-02-09T02:29:31.712Z,101045.59
2019-02-09T02:30:09.037Z,101041.43
2019-02-09T02:30:45.260Z,101044.95
2019-02-09T02:31:21.255Z,101048.47
2019-02-09T02:31:57.477Z,101049.44
2019-02-09T02:32:34.791Z,101047.52
2019-02-09T02:33:11.416Z,101053.69
2019-02-09T02:33:47.465Z,101054.16
2019-02-09T02:34:23.731Z,101053.29
2019-02-09T02:34:59.995Z,101055.64
2019-02-09T02:35:36.259Z,101062.33
2019-02-09T02:36:12.507Z,101065.53
2019-02-09T02:36:48.608Z,101058.80
2019-02-09T02:37:24.880Z,101065.22
2019-02-09T02:38:00.908Z,101062.17
2019-02-09T02:38:37.077Z,101059.69
2019-02-09T02:39:13.583Z,101062.09
2019-02-09T02:39:49.780Z,101061.85
2019-02-09T02:40:26.225Z,101060.73
2019-02-09T02:41:02.322Z,101062.33
2019-02-09T02:41:38.411Z,101064.97
2019-02-09T02:42:14.502Z,101061.41
2019-02-09T02:42:50.750Z,101066.45
2019-02-09T02:43:27.108Z,101063.16
2019-02-09T02:44:03.239Z,101060.28
2019-02-09T02:44:39.402Z,101065.32
2019-02-09T02:45:16.225Z,101063.08
2019-02-09T02:45:52.350Z,101057.63
2019-02-09T02:46:28.534Z,101061.39
2019-02-09T02:47:04.716Z,101063.51
2019-02-09T02:47:40.963Z,101057.26
2019-02-09T02:48:16.929Z,101067.54
2019-02-09T02:48:53.116Z,101055.77
2019-02-09T02:49:29.187Z,101066.02
2019-02-09T02:50:05.496Z,101064.41
2019-02-09T02:50:41.742Z,101063.29
2019-02-09T02:51:17.865Z,101059.44
2019-02-09T02:51:54.001Z,101059.12
2019-02-09T02:52:30.302Z,101061.52
2019-02-09T02:53:06.635Z,101060.31
2019-02-09T02:53:42.843Z,101059.75
2019-02-09T02:54:19.054Z,101058.62
2019-02-09T02:54:55.272Z,101057.75
2019-02-09T02:55:31.479Z,101051.97
2019-02-09T02:56:07.775Z,101054.88
2019-02-09T02:56:44.031Z,101051.98
2019-02-09T02:57:20.181Z,101055.90
2019-02-09T02:57:56.562Z,101057.33
2019-02-09T02:58:32.829Z,101060.77
2019-02-09T02:59:08.897Z,101057.95
2019-02-09T02:59:45.191Z,101065.78
2019-02-09T03:00:31.625Z,101065.21
2019-02-09T03:01:01.015Z,101063.20
2019-02-09T03:01:37.096Z,101067.53
2019-02-09T03:02:13.203Z,101063.44
2019-02-09T03:02:49.460Z,101065.84
2019-02-09T03:03:25.765Z,101062.22
2019-02-09T03:04:01.817Z,101064.63
2019-02-09T03:04:37.856Z,101065.36
2019-02-09T03:05:16.017Z,101065.28
2019-02-09T03:05:52.117Z,101066.88
2019-02-09T03:06:28.450Z,101067.59
2019-02-09T03:07:04.744Z,101066.46
2019-02-09T03:07:41.034Z,101065.57
2019-02-09T03:08:17.214Z,101066.28
2019-02-09T03:08:53.216Z,101065.72
2019-02-09T03:09:29.352Z,101069.24
2019-02-09T03:10:05.975Z,101063.17
2019-02-09T03:10:42.185Z,101068.30
2019-02-09T03:11:18.552Z,101063.87
2019-02-09T03:11:54.850Z,101064.53
2019-02-09T03:12:31.029Z,101062.38
2019-02-09T03:13:07.086Z,101064.86
2019-02-09T03:13:43.335Z,101067.87
2019-02-09T03:14:19.435Z,101062.84
2019-02-09T03:14:55.626Z,101063.55
2019-02-09T03:15:32.450Z,101057.54
2019-02-09T03:16:08.688Z,101058.05
2019-02-09T03:16:44.806Z,101064.44
2019-02-09T03:17:21.292Z,101062.84
2019-02-09T03:17:57.455Z,101060.03
2019-02-09T03:18:33.488Z,101061.24
2019-02-09T03:19:09.625Z,101060.44
2019-02-09T03:19:45.757Z,101061.33
2019-02-09T03:20:22.127Z,101061.57
2019-02-09T03:20:58.204Z,101057.24
2019-02-09T03:21:34.507Z,101053.95
2019-02-09T03:22:10.630Z,101060.91
2019-02-09T03:22:46.935Z,101062.98
2019-02-09T03:23:23.092Z,101062.33
2019-02-09T03:23:59.222Z,101056.23
2019-02-09T03:24:35.326Z,101052.61
2019-02-09T03:25:13.886Z,101058.20
2019-02-09T03:25:50.028Z,101053.45
2019-02-09T03:26:26.347Z,101053.96
2019-02-09T03:27:02.451Z,101051.00
2019-02-09T03:27:38.618Z,101050.44
2019-02-09T03:28:14.722Z,101055.23
2019-02-09T03:28:51.054Z,101048.80
2019-02-09T03:29:27.273Z,101049.30
2019-02-09T03:30:03.551Z,101050.91
2019-02-09T03:30:47.629Z,101054.20
2019-02-09T03:31:17.789Z,101051.14
2019-02-09T03:31:54.077Z,101053.63
2019-02-09T03:32:30.199Z,101043.42
2019-02-09T03:33:06.400Z,101048.73
2019-02-09T03:33:42.728Z,101052.11
2019-02-09T03:34:18.866Z,101053.28
2019-02-09T03:34:55.048Z,101054.47
2019-02-09T03:35:31.199Z,101054.37
2019-02-09T03:36:07.221Z,101050.21
2019-02-09T03:36:43.436Z,101051.95
2019-02-09T03:37:19.695Z,101048.89
2019-02-09T03:37:56.016Z,101048.23
2019-02-09T03:38:32.274Z,101051.19
2019-02-09T03:39:09.905Z,101050.30
2019-02-09T03:39:46.221Z,101048.50
2019-02-09T03:40:23.373Z,101045.77
2019-02-09T03:40:59.533Z,101048.31
2019-02-09T03:41:35.793Z,101041.98
2019-02-09T03:42:12.083Z,101048.80
2019-02-09T03:42:48.467Z,101039.55
2019-02-09T03:43:24.533Z,101042.61
2019-02-09T03:44:00.824Z,101039.66
2019-02-09T03:44:37.095Z,101043.47
2019-02-09T03:45:19.481Z,101042.30
2019-02-09T03:45:55.698Z,101039.11
2019-02-09T03:46:31.811Z,101042.30
2019-02-09T03:47:08.006Z,101038.20
2019-02-09T03:47:44.326Z,101037.31
2019-02-09T03:48:20.585Z,101036.84
2019-02-09T03:48:56.906Z,101032.79
2019-02-09T03:49:33.042Z,101040.78
2019-02-09T03:50:10.313Z,101037.39
2019-02-09T03:50:46.513Z,101037.89
2019-02-09T03:51:22.743Z,101036.22
2019-02-09T03:51:58.707Z,101028.73
2019-02-09T03:52:34.897Z,101028.27
2019-02-09T03:53:11.171Z,101032.59
2019-02-09T03:53:47.453Z,101029.87
2019-02-09T03:54:23.723Z,101034.19
2019-02-09T03:54:59.836Z,101028.41
2019-02-09T03:55:36.039Z,101029.87
2019-02-09T03:56:12.286Z,101028.34
2019-02-09T03:56:48.441Z,101022.21
2019-02-09T03:57:24.502Z,101026.54
2019-02-09T03:58:00.559Z,101023.14
2019-02-09T03:58:36.773Z,101019.31
2019-02-09T03:59:12.893Z,101023.87
2019-02-09T03:59:49.189Z,101028.66
2019-02-09T04:00:26.882Z,101029.47
2019-02-09T04:01:03.322Z,101024.14
2019-02-09T04:01:39.600Z,101028.13
2019-02-09T04:02:15.857Z,101023.47
2019-02-09T04:02:52.121Z,101023.00
2019-02-09T04:03:28.386Z,101022.11
2019-02-09T04:04:04.464Z,101021.88
2019-02-09T04:04:40.650Z,101020.61
2019-02-09T04:05:16.873Z,101017.98
2019-02-09T04:05:52.974Z,101019.58
2019-02-09T04:06:29.157Z,101019.48
2019-02-09T04:07:05.394Z,101022.20
2019-02-09T04:07:41.577Z,101019.81
2019-02-09T04:08:17.857Z,101016.41
2019-02-09T04:08:53.977Z,101012.66
2019-02-09T04:09:30.355Z,101012.09
2019-02-09T04:10:08.184Z,101012.81
2019-02-09T04:10:44.424Z,101011.11
2019-02-09T04:11:20.535Z,101013.52
2019-02-09T04:11:56.572Z,101009.31
2019-02-09T04:12:32.686Z,101010.11
2019-02-09T04:13:08.900Z,101009.21
2019-02-09T04:13:45.120Z,101012.05
2019-02-09T04:14:21.423Z,101006.25
2019-02-09T04:14:57.693Z,101012.14
2019-02-09T04:15:33.835Z,101008.09
2019-02-09T04:16:09.938Z,101011.62
2019-02-09T04:16:46.281Z,101009.59
2019-02-09T04:17:22.381Z,101006.39
2019-02-09T04:17:58.933Z,101005.49
2019-02-09T04:18:35.220Z,101002.99
2019-02-09T04:19:11.322Z,101001.62
2019-02-09T04:19:47.582Z,101004.06
2019-02-09T04:20:24.257Z,100997.70
2019-02-09T04:21:00.431Z,100997.59
2019-02-09T04:21:36.533Z,100995.33
2019-02-09T04:22:12.681Z,100990.77
2019-02-09T04:22:48.810Z,100993.95
2019-02-09T04:23:24.922Z,100985.33
2019-02-09T04:24:01.116Z,100989.89
2019-02-09T04:24:37.182Z,100986.48
2019-02-09T04:25:14.559Z,100987.85
2019-02-09T04:25:50.662Z,100979.66
2019-02-09T04:26:26.838Z,100982.05
2019-02-09T04:27:02.962Z,100981.25
2019-02-09T04:27:39.085Z,100980.45
2019-02-09T04:28:15.193Z,100975.90
2019-02-09T04:28:51.436Z,100972.27
2019-02-09T04:29:27.597Z,100976.92
2019-02-09T04:30:03.840Z,100967.60
2019-02-09T04:30:39.953Z,100966.23
2019-02-09T04:31:16.182Z,100972.39
2019-02-09T04:31:52.322Z,100972.63
2019-02-09T04:32:28.658Z,100976.53
2019-02-09T04:33:04.734Z,100974.73
2019-02-09T04:33:40.853Z,100972.90
2019-02-09T04:34:16.973Z,100967.67
2019-02-09T04:34:53.163Z,100969.50
2019-02-09T04:35:29.299Z,100969.50
2019-02-09T04:36:05.427Z,100962.66
2019-02-09T04:36:41.457Z,100965.86
2019-02-09T04:37:17.675Z,100963.62
2019-02-09T04:37:53.884Z,100965.45
2019-02-09T04:38:30.171Z,100962.94
2019-02-09T04:39:08.292Z,100962.03
2019-02-09T04:39:44.333Z,100954.64
2019-02-09T04:40:24.909Z,100958.86
2019-02-09T04:41:01.199Z,100959.34
2019-02-09T04:41:37.433Z,100957.41
2019-02-09T04:42:13.667Z,100955.94
2019-02-09T04:42:49.798Z,100957.53
2019-02-09T04:43:26.141Z,100954.92
2019-02-09T04:44:02.483Z,100952.98
2019-02-09T04:44:38.626Z,100951.51
2019-02-09T04:45:15.279Z,100950.94
2019-02-09T04:45:51.364Z,100948.66
2019-02-09T04:46:27.439Z,100954.25
2019-02-09T04:47:03.564Z,100952.66
2019-02-09T04:47:39.711Z,100949.57
2019-02-09T04:48:15.845Z,100955.72
2019-02-09T04:48:51.842Z,100944.78
2019-02-09T04:49:28.016Z,100947.53
2019-02-09T04:50:04.167Z,100945.75
2019-02-09T04:50:40.421Z,100942.98
2019-02-09T04:51:16.826Z,100944.73
2019-02-09T04:51:53.138Z,100946.02
2019-02-09T04:52:29.265Z,100941.03
2019-02-09T04:53:05.397Z,100939.43
2019-02-09T04:53:41.473Z,100944.60
2019-02-09T04:54:17.493Z,100944.67
2019-02-09T04:54:53.573Z,100941.14
2019-02-09T04:55:29.813Z,100944.08
2019-02-09T04:56:06.134Z,100942.61
2019-02-09T04:56:42.423Z,100939.08
2019-02-09T04:57:18.651Z,100942.37
2019-02-09T04:57:54.813Z,100932.80
2019-02-09T04:58:30.947Z,100933.86
2019-02-09T04:59:07.249Z,100933.55
2019-02-09T04:59:43.463Z,100930.31
2019-02-09T05:00:27.305Z,100924.19
2019-02-09T05:01:03.729Z,100934.70
2019-02-09T05:01:40.069Z,100931.41
2019-02-09T05:02:16.161Z,100931.14
2019-02-09T05:02:52.464Z,100928.84
2019-02-09T05:03:28.797Z,100928.52
2019-02-09T05:04:04.984Z,100926.51
2019-02-09T05:04:41.079Z,100927.09
2019-02-09T05:05:17.271Z,100933.13
2019-02-09T05:05:53.353Z,100926.74
2019-02-09T05:06:29.464Z,100925.32
2019-02-09T05:07:05.749Z,100919.31
2019-02-09T05:07:41.867Z,100920.98
2019-02-09T05:08:18.060Z,100919.63
2019-02-09T05:08:54.308Z,100917.89
2019-02-09T05:09:30.561Z,100919.41
2019-02-09T05:10:07.163Z,100925.41
2019-02-09T05:10:43.323Z,100919.59
2019-02-09T05:11:19.496Z,100921.05
2019-02-09T05:11:55.683Z,100921.89
2019-02-09T05:12:31.725Z,100918.11
2019-02-09T05:13:07.830Z,100916.52
2019-02-09T05:13:44.095Z,100914.81
2019-02-09T05:14:20.330Z,100911.73
2019-02-09T05:14:56.512Z,100911.31
2019-02-09T05:15:32.697Z,100910.42
2019-02-09T05:16:09.014Z,100909.06
2019-02-09T05:16:45.326Z,100907.23
2019-02-09T05:17:21.567Z,100915.17
2019-02-09T05:17:57.818Z,100906.80
2019-02-09T05:18:34.098Z,100903.20
2019-02-09T05:19:10.397Z,100901.84
2019-02-09T05:19:46.634Z,100911.00
2019-02-09T05:20:24.966Z,100906.25
2019-02-09T05:21:01.485Z,100900.33
2019-02-09T05:21:37.706Z,100908.56
2019-02-09T05:22:13.932Z,100909.08
2019-02-09T05:22:50.316Z,100902.20
2019-02-09T05:23:26.291Z,100902.39
2019-02-09T05:24:02.358Z,100900.19
2019-02-09T05:24:38.672Z,100900.39
2019-02-09T05:25:15.260Z,100898.63
2019-02-09T05:25:51.391Z,100899.39
2019-02-09T05:26:27.562Z,100899.23
2019-02-09T05:27:03.707Z,100901.59
2019-02-09T05:27:39.968Z,100895.31
2019-02-09T05:28:16.274Z,100895.34
2019-02-09T05:28:52.313Z,100897.23
2019-02-09T05:29:28.473Z,100895.42
2019-02-09T05:30:04.728Z,100895.80
2019-02-09T05:30:40.903Z,100904.19
2019-02-09T05:31:22.908Z,100900.20
2019-02-09T05:31:56.391Z,100898.73
2019-02-09T05:32:32.655Z,100895.00
2019-02-09T05:33:08.874Z,100897.20
2019-02-09T05:33:45.142Z,100901.06
2019-02-09T05:34:21.441Z,100893.55
2019-02-09T05:34:57.814Z,100892.28
2019-02-09T05:35:33.886Z,100895.21
2019-02-09T05:36:09.995Z,100896.71
2019-02-09T05:36:46.343Z,100893.02
2019-02-09T05:37:22.494Z,100894.87
2019-02-09T05:37:58.672Z,100891.02
2019-02-09T05:38:34.900Z,100898.59
2019-02-09T05:39:11.472Z,100896.77
2019-02-09T05:39:47.704Z,100898.83
2019-02-09T05:40:24.458Z,100893.13
2019-02-09T05:41:00.740Z,100894.27
2019-02-09T05:41:36.957Z,100892.58
2019-02-09T05:42:13.125Z,100893.68
2019-02-09T05:42:49.311Z,100889.09
2019-02-09T05:43:25.604Z,100891.42
2019-02-09T05:44:01.669Z,100890.95
2019-02-09T05:44:37.790Z,100890.95
2019-02-09T05:45:16.851Z,100887.03
2019-02-09T05:45:52.991Z,100886.36
2019-02-09T05:46:29.262Z,100882.80
2019-02-09T05:47:05.522Z,100882.37
2019-02-09T05:47:41.824Z,100879.70
2019-02-09T05:48:17.989Z,100882.16
2019-02-09T05:48:54.258Z,100880.30
2019-02-09T05:49:30.658Z,100885.50
2019-02-09T05:50:09.880Z,100879.35
2019-02-09T05:50:46.025Z,100882.17
2019-02-09T05:51:22.206Z,100877.81
2019-02-09T05:51:58.534Z,100878.25
2019-02-09T05:52:34.814Z,100874.82
2019-02-09T05:53:10.915Z,100873.16
2019-02-09T05:53:47.034Z,100874.05
2019-02-09T05:54:23.312Z,100872.08
2019-02-09T05:54:59.612Z,100865.13
2019-02-09T05:55:35.834Z,100866.32
2019-02-09T05:56:11.893Z,100865.02
2019-02-09T05:56:48.035Z,100864.55
2019-02-09T05:57:26.065Z,100857.93
2019-02-09T05:58:02.248Z,100863.15
2019-02-09T05:58:41.077Z,100859.67
2019-02-09T05:59:17.190Z,100864.65
2019-02-09T05:59:53.306Z,100862.55
2019-02-09T06:00:37.505Z,100857.37
2019-02-09T06:01:13.617Z,100854.75
2019-02-09T06:01:49.819Z,100854.93
2019-02-09T06:02:25.971Z,100857.19
2019-02-09T06:03:02.851Z,100857.04
2019-02-09T06:03:38.956Z,100860.56
2019-02-09T06:04:15.215Z,100851.89
2019-02-09T06:04:51.359Z,100850.80
2019-02-09T06:05:27.557Z,100848.69
2019-02-09T06:06:03.735Z,100847.70
2019-02-09T06:06:39.829Z,100846.20
2019-02-09T06:07:15.990Z,100844.14
2019-02-09T06:07:52.343Z,100837.09
2019-02-09T06:08:28.514Z,100842.16
2019-02-09T06:09:05.631Z,100844.33
2019-02-09T06:09:41.794Z,100835.87
2019-02-09T06:10:18.531Z,100833.76
2019-02-09T06:10:54.722Z,100835.16
2019-02-09T06:11:30.829Z,100830.16
2019-02-09T06:12:07.228Z,100827.77
2019-02-09T06:12:43.443Z,100831.05
2019-02-09T06:13:19.577Z,100833.16
2019-02-09T06:13:55.675Z,100830.44
2019-02-09T06:14:31.838Z,100831.74
2019-02-09T06:15:08.600Z,100831.27
2019-02-09T06:15:44.902Z,100828.55
2019-02-09T06:16:21.082Z,100828.08
2019-02-09T06:16:57.422Z,100833.52
2019-02-09T06:17:33.454Z,100826.48
2019-02-09T06:18:09.745Z,100826.48
2019-02-09T06:18:45.947Z,100827.60
2019-02-09T06:19:22.109Z,100827.60
2019-02-09T06:19:58.188Z,100825.12
2019-02-09T06:20:34.434Z,100821.03
2019-02-09T06:21:10.623Z,100815.59
2019-02-09T06:21:46.819Z,100820.47
2019-02-09T06:22:23.091Z,100820.53
2019-02-09T06:22:59.387Z,100824.61
2019-02-09T06:23:35.501Z,100825.97
2019-02-09T06:24:11.762Z,100821.83
2019-02-09T06:24:47.888Z,100817.28
2019-02-09T06:25:24.185Z,100815.20
2019-02-09T06:26:00.360Z,100813.37
2019-02-09T06:26:36.592Z,100811.53
2019-02-09T06:27:12.619Z,100809.70
2019-02-09T06:27:48.689Z,100805.14
2019-02-09T06:28:24.836Z,100807.63
2019-02-09T06:29:00.986Z,100810.36
2019-02-09T06:29:37.292Z,100806.03
2019-02-09T06:30:16.379Z,100803.31
2019-02-09T06:30:52.507Z,100798.16
2019-02-09T06:31:28.767Z,100795.44
2019-02-09T06:32:04.975Z,100796.80
2019-02-09T06:32:41.270Z,100794.64
2019-02-09T06:33:17.374Z,100794.88
2019-02-09T06:33:53.760Z,100793.52
2019-02-09T06:34:29.990Z,100784.85
2019-02-09T06:35:06.831Z,100789.49
2019-02-09T06:35:42.934Z,100781.95
2019-02-09T06:36:19.207Z,100778.28
2019-02-09T06:36:57.959Z,100778.05
2019-02-09T06:37:34.170Z,100779.97
2019-02-09T06:38:10.272Z,100773.16
2019-02-09T06:38:46.530Z,100776.13
2019-02-09T06:39:22.624Z,100776.36
2019-02-09T06:39:58.713Z,100771.71
2019-02-09T06:40:34.990Z,100773.31
2019-02-09T06:41:11.171Z,100773.31
2019-02-09T06:41:47.450Z,100768.34
2019-02-09T06:42:23.637Z,100767.22
2019-02-09T06:42:59.818Z,100760.41
2019-02-09T06:43:35.993Z,100763.87
2019-02-09T06:44:12.268Z,100768.19
2019-02-09T06:44:48.599Z,100762.37
2019-02-09T06:45:25.277Z,100766.83
2019-02-09T06:46:01.447Z,100767.39
2019-02-09T06:46:37.513Z,100772.18
2019-02-09T06:47:13.767Z,100766.50
2019-02-09T06:47:49.999Z,100764.91
2019-02-09T06:48:28.452Z,100767.16
2019-02-09T06:49:04.681Z,100764.53
2019-02-09T06:49:40.857Z,100768.28
2019-02-09T06:50:25.436Z,100763.73
2019-02-09T06:51:03.104Z,100761.90
2019-02-09T06:51:39.412Z,100758.47
2019-02-09T06:52:15.638Z,100759.92
2019-02-09T06:52:51.640Z,100760.02
2019-02-09T06:53:27.965Z,100763.07
2019-02-09T06:54:04.110Z,100757.92
2019-02-09T06:54:40.445Z,100755.29
2019-02-09T06:55:17.233Z,100758.10